createdAt,value
2018-09-22T06:20:29.288Z,2.80
2018-09-22T06:22:57.412Z,2.90
2018-09-22T06:25:28.152Z,2.90
2018-09-22T06:27:58.633Z,2.70
2018-09-22T06:30:29.461Z,3.20
2018-09-22T06:33:00.231Z,3.20
2018-09-22T06:35:31.143Z,3.00
2018-09-22T06:38:01.850Z,3.22
2018-09-22T06:40:33.217Z,3.00
2018-09-22T06:43:16.502Z,3.30
2018-09-22T06:45:44.436Z,3.20
2018-09-22T06:48:12.468Z,3.35
2018-09-22T06:50:42.601Z,2.83
2018-09-22T06:53:20.971Z,3.25
2018-09-22T06:55:48.914Z,3.30
2018-09-22T06:58:16.857Z,3.00
2018-09-22T07:00:44.773Z,2.80
2018-09-22T07:03:12.687Z,2.62
2018-09-22T07:05:40.813Z,3.15
2018-09-22T07:08:08.880Z,2.80
2018-09-22T07:10:36.865Z,2.67
2018-09-22T07:13:05.113Z,2.67
2018-09-22T07:15:33.206Z,2.35
2018-09-22T07:18:01.173Z,2.40
2018-09-22T07:20:30.183Z,2.72
2018-09-22T07:23:03.717Z,2.65
2018-09-22T07:25:31.901Z,3.00
2018-09-22T07:28:00.037Z,1.98
2018-09-22T07:30:28.080Z,2.58
2018-09-22T07:32:56.268Z,2.37
2018-09-22T07:35:24.320Z,2.35
2018-09-22T07:37:52.624Z,2.15
2018-09-22T07:40:20.673Z,2.55
2018-09-22T07:42:48.770Z,2.70
2018-09-22T07:45:17.024Z,2.10
2018-09-22T07:47:45.216Z,2.25
2018-09-22T07:50:13.281Z,2.45
2018-09-22T07:52:41.581Z,2.30
2018-09-22T07:55:09.747Z,2.00
2018-09-22T07:57:37.933Z,2.05
2018-09-22T08:00:06.209Z,2.10
2018-09-22T08:02:34.301Z,2.60
2018-09-22T08:05:02.317Z,2.20
2018-09-22T08:07:30.640Z,2.30
2018-09-22T08:09:58.693Z,2.40
2018-09-22T08:12:26.878Z,2.12
2018-09-22T08:14:54.931Z,2.02
2018-09-22T08:17:23.012Z,1.70
2018-09-22T08:19:51.180Z,1.70
2018-09-22T08:22:19.280Z,1.67
2018-09-22T08:24:47.530Z,1.90
2018-09-22T08:27:15.734Z,1.50
2018-09-22T08:29:43.797Z,1.40
2018-09-22T08:32:11.921Z,1.42
2018-09-22T08:34:39.933Z,1.60
2018-09-22T08:37:08.293Z,1.20
2018-09-22T08:39:36.185Z,1.70
2018-09-22T08:42:04.243Z,1.50
2018-09-22T08:44:32.541Z,1.90
2018-09-22T08:47:00.580Z,1.30
2018-09-22T08:49:28.729Z,1.35
2018-09-22T08:51:56.850Z,1.30
2018-09-22T08:54:24.912Z,1.60
2018-09-22T08:56:53.168Z,1.32
2018-09-22T08:59:21.209Z,1.40
2018-09-22T09:01:49.240Z,1.30
2018-09-22T09:04:17.335Z,1.50
2018-09-22T09:06:45.463Z,1.70
2018-09-22T09:09:13.784Z,1.90
2018-09-22T09:11:41.827Z,1.60
2018-09-22T09:14:09.955Z,1.37
2018-09-22T09:16:38.115Z,1.90
2018-09-22T09:19:06.172Z,1.45
2018-09-22T09:21:34.322Z,1.50
2018-09-22T09:24:02.436Z,1.57
2018-09-22T09:26:30.481Z,1.67
2018-09-22T09:28:58.564Z,1.82
2018-09-22T09:31:26.645Z,1.40
2018-09-22T09:33:54.735Z,1.52
2018-09-22T09:36:22.883Z,1.60
2018-09-22T09:38:55.573Z,1.62
2018-09-22T09:41:23.758Z,1.50
2018-09-22T09:43:51.905Z,1.40
2018-09-22T09:46:20.236Z,1.70
2018-09-22T09:48:48.267Z,1.40
2018-09-22T09:51:16.605Z,1.80
2018-09-22T09:53:44.931Z,1.70
2018-09-22T09:56:13.027Z,1.30
2018-09-22T09:58:41.181Z,1.60
2018-09-22T10:01:09.536Z,1.70
2018-09-22T10:03:37.847Z,1.35
2018-09-22T10:06:05.909Z,1.70
2018-09-22T10:08:34.197Z,1.67
2018-09-22T10:11:02.356Z,1.50
2018-09-22T10:13:30.460Z,1.90
2018-09-22T10:15:58.600Z,1.50
2018-09-22T10:18:26.789Z,1.50
2018-09-22T10:20:54.874Z,1.70
2018-09-22T10:23:23.040Z,1.70
2018-09-22T10:25:51.209Z,1.70
2018-09-22T10:28:19.325Z,1.55
2018-09-22T10:30:47.364Z,1.50
2018-09-22T10:33:15.424Z,1.50
2018-09-22T10:35:43.708Z,1.80
2018-09-22T10:38:11.859Z,1.80
2018-09-22T10:40:39.968Z,1.75
2018-09-22T10:43:08.504Z,1.60
2018-09-22T10:45:37.048Z,1.40
2018-09-22T10:48:05.175Z,1.50
2018-09-22T10:50:33.408Z,1.30
2018-09-22T10:53:01.496Z,1.30
2018-09-22T10:55:29.633Z,1.60
2018-09-22T10:57:57.710Z,1.52
2018-09-22T11:00:26.040Z,1.50
2018-09-22T11:02:54.387Z,1.45
2018-09-22T11:05:22.504Z,1.40
2018-09-22T11:07:50.829Z,1.45
2018-09-22T11:10:18.977Z,1.60
2018-09-22T11:12:47.174Z,1.40
2018-09-22T11:15:15.325Z,1.10
2018-09-22T11:17:43.514Z,1.50
2018-09-22T11:20:11.709Z,1.37
2018-09-22T11:22:39.861Z,1.52
2018-09-22T11:25:07.915Z,1.17
2018-09-22T11:27:36.205Z,1.30
2018-09-22T11:30:04.756Z,1.47
2018-09-22T11:32:33.005Z,1.50
2018-09-22T11:35:01.157Z,1.40
2018-09-22T11:37:29.232Z,1.22
2018-09-22T11:39:57.296Z,1.30
2018-09-22T11:42:25.343Z,1.40
2018-09-22T11:44:53.565Z,1.77
2018-09-22T11:47:21.632Z,1.30
2018-09-22T11:49:49.812Z,1.30
2018-09-22T11:52:17.972Z,1.47
2018-09-22T11:54:46.145Z,1.52
2018-09-22T11:57:14.315Z,1.30
2018-09-22T11:59:42.402Z,1.30
2018-09-22T12:02:10.525Z,1.40
2018-09-22T12:04:38.542Z,1.30
2018-09-22T12:07:06.689Z,1.30
2018-09-22T12:09:34.788Z,1.52
2018-09-22T12:12:03.055Z,1.57
2018-09-22T12:14:31.122Z,1.20
2018-09-22T12:16:59.209Z,1.20
2018-09-22T12:19:27.405Z,1.50
2018-09-22T12:21:55.432Z,1.30
2018-09-22T12:24:23.662Z,1.33
2018-09-22T12:26:51.709Z,1.30
2018-09-22T12:29:20.108Z,1.05
2018-09-22T12:31:48.171Z,1.40
2018-09-22T12:34:16.261Z,1.67
2018-09-22T12:36:44.280Z,1.30
2018-09-22T12:39:12.805Z,1.40
2018-09-22T12:41:40.832Z,1.37
2018-09-22T12:44:09.153Z,1.60
2018-09-22T12:46:37.217Z,1.45
2018-09-22T12:49:05.453Z,1.30
2018-09-22T12:51:33.772Z,1.25
2018-09-22T12:54:02.052Z,1.50
2018-09-22T12:56:30.269Z,1.30
2018-09-22T12:58:58.496Z,1.45
2018-09-22T13:01:26.597Z,1.10
2018-09-22T13:03:54.727Z,1.35
2018-09-22T13:06:22.804Z,1.50
2018-09-22T13:08:50.902Z,1.30
2018-09-22T13:11:19.578Z,1.32
2018-09-22T13:13:47.656Z,1.50
2018-09-22T13:16:15.709Z,1.10
2018-09-22T13:18:44.120Z,1.40
2018-09-22T13:21:12.395Z,1.40
2018-09-22T13:23:40.470Z,5.78
2018-09-22T13:26:08.659Z,1.92
2018-09-22T13:28:36.952Z,1.42
2018-09-22T13:31:05.183Z,1.80
2018-09-22T13:33:33.265Z,1.50
2018-09-22T13:36:01.423Z,1.62
2018-09-22T13:38:29.563Z,1.47
2018-09-22T13:40:57.709Z,1.20
2018-09-22T13:43:25.944Z,1.50
2018-09-22T13:45:54.268Z,1.15
2018-09-22T13:48:22.409Z,1.50
2018-09-22T13:50:50.641Z,1.30
2018-09-22T13:53:18.771Z,1.50
2018-09-22T13:55:46.848Z,2.40
2018-09-22T13:58:15.013Z,2.30
2018-09-22T14:00:43.095Z,1.40
2018-09-22T14:03:11.178Z,1.20
2018-09-22T14:05:39.438Z,1.30
2018-09-22T14:08:07.537Z,1.40
2018-09-22T14:10:35.826Z,1.83
2018-09-22T14:13:04.184Z,1.30
2018-09-22T14:15:32.473Z,2.30
2018-09-22T14:18:00.549Z,2.02
2018-09-22T14:20:28.572Z,2.10
2018-09-22T14:22:56.771Z,1.80
2018-09-22T14:25:24.862Z,1.27
2018-09-22T14:27:52.939Z,1.82
2018-09-22T14:30:20.997Z,1.77
2018-09-22T14:32:49.266Z,1.70
2018-09-22T14:35:17.490Z,2.08
2018-09-22T14:37:45.630Z,1.60
2018-09-22T14:40:13.708Z,3.20
2018-09-22T14:42:41.768Z,2.30
2018-09-22T14:45:09.948Z,4.72
2018-09-22T14:47:37.999Z,1.70
2018-09-22T14:50:06.321Z,1.72
2018-09-22T14:52:34.350Z,1.22
2018-09-22T14:55:02.661Z,1.70
2018-09-22T14:57:30.720Z,3.10
2018-09-22T14:59:58.954Z,2.40
2018-09-22T15:02:26.991Z,1.70
2018-09-22T15:04:55.129Z,1.65
2018-09-22T15:07:23.426Z,1.70
2018-09-22T15:09:51.783Z,1.50
2018-09-22T15:12:19.883Z,1.40
2018-09-22T15:14:47.941Z,1.40
2018-09-22T15:17:16.282Z,1.35
2018-09-22T15:19:44.367Z,1.90
2018-09-22T15:22:12.481Z,1.40
2018-09-22T15:24:40.629Z,1.47
2018-09-22T15:27:08.729Z,1.50
2018-09-22T15:29:36.914Z,1.52
2018-09-22T15:32:04.964Z,1.40
2018-09-22T15:34:33.039Z,1.63
2018-09-22T15:37:01.226Z,1.50
2018-09-22T15:39:29.291Z,1.50
2018-09-22T15:41:57.692Z,1.30
2018-09-22T15:44:25.803Z,1.30
2018-09-22T15:46:54.022Z,1.60
2018-09-22T15:49:22.311Z,1.57
2018-09-22T15:51:50.472Z,1.65
2018-09-22T15:54:18.554Z,1.35
2018-09-22T15:56:46.611Z,1.50
2018-09-22T15:59:14.697Z,1.40
2018-09-22T16:01:42.784Z,1.70
2018-09-22T16:04:10.821Z,1.67
2018-09-22T16:06:39.047Z,1.60
2018-09-22T16:09:08.386Z,1.40
2018-09-22T16:11:36.509Z,1.80
2018-09-22T16:14:04.759Z,1.80
2018-09-22T16:16:33.157Z,1.40
2018-09-22T16:19:01.631Z,1.60
2018-09-22T16:21:29.913Z,1.80
2018-09-22T16:23:58.100Z,1.27
2018-09-22T16:26:26.144Z,1.30
2018-09-22T16:28:54.360Z,1.50
2018-09-22T16:31:22.411Z,1.40
2018-09-22T16:33:50.634Z,1.63
2018-09-22T16:36:19.475Z,1.40
2018-09-22T16:38:47.553Z,1.42
2018-09-22T16:41:15.724Z,1.40
2018-09-22T16:43:43.820Z,1.70
2018-09-22T16:46:11.978Z,1.52
2018-09-22T16:48:40.134Z,1.40
2018-09-22T16:51:08.297Z,1.40
2018-09-22T16:53:36.403Z,1.77
2018-09-22T16:56:04.486Z,1.45
2018-09-22T16:58:32.588Z,1.40
2018-09-22T17:01:00.725Z,1.60
2018-09-22T17:03:32.817Z,1.50
2018-09-22T17:06:03.272Z,2.10
2018-09-22T17:08:32.104Z,2.05
2018-09-22T17:11:00.176Z,1.82
2018-09-22T17:13:28.360Z,1.70
2018-09-22T17:15:56.616Z,1.70
2018-09-22T17:18:24.640Z,2.00
2018-09-22T17:20:52.661Z,2.00
2018-09-22T17:23:20.597Z,1.40
2018-09-22T17:25:48.732Z,1.80
2018-09-22T17:28:17.003Z,2.10
2018-09-22T17:30:45.284Z,1.90
2018-09-22T17:33:13.338Z,2.20
2018-09-22T17:35:41.435Z,1.90
2018-09-22T17:38:13.594Z,1.90
2018-09-22T17:40:44.826Z,1.70
2018-09-22T17:43:15.794Z,2.00
2018-09-22T17:45:46.419Z,1.80
2018-09-22T17:48:17.503Z,2.60
2018-09-22T17:50:49.014Z,2.50
2018-09-22T17:53:20.325Z,2.30
2018-09-22T17:55:51.992Z,2.08
2018-09-22T17:58:23.472Z,2.45
2018-09-22T18:00:55.879Z,2.00
2018-09-22T18:03:36.023Z,1.60
2018-09-22T18:06:06.884Z,1.90
2018-09-22T18:08:38.313Z,1.97
2018-09-22T18:11:09.250Z,1.40
2018-09-22T18:13:50.521Z,2.00
2018-09-22T18:16:21.393Z,2.05
2018-09-22T18:18:52.302Z,2.30
2018-09-22T18:21:22.648Z,2.08
2018-09-22T18:23:53.903Z,2.30
2018-09-22T18:26:24.644Z,2.30
2018-09-22T18:28:55.285Z,2.00
2018-09-22T18:31:26.857Z,2.00
2018-09-22T18:33:58.320Z,1.90
2018-09-22T18:36:29.428Z,2.30
2018-09-22T18:39:01.119Z,2.20
2018-09-22T18:41:32.653Z,2.00
2018-09-22T18:44:04.486Z,2.20
2018-09-22T18:46:35.915Z,2.10
2018-09-22T18:49:07.468Z,2.15
2018-09-22T18:51:39.099Z,2.00
2018-09-22T18:54:10.851Z,2.20
2018-09-22T18:56:42.929Z,2.10
2018-09-22T18:59:14.827Z,2.50
2018-09-22T19:01:46.751Z,2.05
2018-09-22T19:04:18.343Z,2.22
2018-09-22T19:06:50.026Z,2.40
2018-09-22T19:09:22.011Z,2.50
2018-09-22T19:11:54.817Z,2.30
2018-09-22T19:14:35.407Z,3.15
2018-09-22T19:17:11.884Z,3.30
2018-09-22T19:19:51.088Z,2.83
2018-09-22T19:22:31.778Z,2.90
2018-09-22T19:25:07.158Z,2.40
2018-09-22T19:27:43.283Z,3.33
2018-09-22T19:30:21.626Z,3.00
2018-09-22T19:32:57.502Z,2.90
2018-09-22T19:35:36.071Z,2.67
2018-09-22T19:38:16.611Z,3.20
2018-09-22T19:40:59.382Z,4.40
2018-09-22T19:43:36.691Z,3.70
2018-09-22T19:46:12.827Z,4.45
2018-09-22T19:49:53.931Z,4.30
2018-09-22T19:52:32.644Z,4.20
2018-09-22T19:55:05.069Z,4.23
2018-09-22T19:57:36.953Z,5.10
2018-09-22T20:00:08.983Z,4.30
2018-09-22T20:02:51.011Z,4.53
2018-09-22T20:05:31.683Z,4.50
2018-09-22T20:08:05.393Z,4.55
2018-09-22T20:10:46.176Z,3.92
2018-09-22T20:13:30.743Z,3.70
2018-09-22T20:16:17.113Z,3.80
2018-09-22T20:18:51.040Z,3.80
2018-09-22T20:21:23.121Z,3.87
2018-09-22T20:23:54.385Z,4.15
2018-09-22T20:26:26.546Z,3.90
2018-09-22T20:28:59.457Z,3.60
2018-09-22T20:31:32.799Z,4.47
2018-09-22T20:34:04.173Z,3.40
2018-09-22T20:36:37.044Z,3.70
2018-09-22T20:39:11.220Z,3.23
2018-09-22T20:41:45.417Z,3.00
2018-09-22T20:44:19.672Z,2.70
2018-09-22T20:46:52.618Z,3.02
2018-09-22T20:49:25.347Z,2.72
2018-09-22T20:51:57.243Z,3.10
2018-09-22T20:54:36.462Z,2.92
2018-09-22T20:57:08.865Z,3.80
2018-09-22T20:59:42.837Z,3.50
2018-09-22T21:02:14.166Z,3.50
2018-09-22T21:04:47.345Z,3.30
2018-09-22T21:07:19.156Z,3.10
2018-09-22T21:09:50.615Z,3.50
2018-09-22T21:12:22.799Z,3.70
2018-09-22T21:14:55.701Z,3.30
2018-09-22T21:17:28.003Z,3.33
2018-09-22T21:20:01.335Z,3.30
2018-09-22T21:22:34.776Z,3.08
2018-09-22T21:25:08.717Z,3.10
2018-09-22T21:27:41.161Z,3.22
2018-09-22T21:30:13.992Z,3.00
2018-09-22T21:32:47.751Z,3.10
2018-09-22T21:35:21.387Z,2.70
2018-09-22T21:37:54.336Z,3.20
2018-09-22T21:40:28.026Z,3.10
2018-09-22T21:43:01.295Z,3.30
2018-09-22T21:45:34.254Z,3.45
2018-09-22T21:48:07.759Z,3.20
2018-09-22T21:50:50.818Z,2.90
2018-09-22T21:53:36.210Z,2.90
2018-09-22T21:56:17.456Z,2.50
2018-09-22T21:59:03.047Z,2.60
2018-09-22T22:01:49.558Z,2.95
2018-09-22T22:04:38.425Z,2.80
2018-09-22T22:07:24.133Z,2.62
2018-09-22T22:10:09.875Z,2.80
2018-09-22T22:12:59.090Z,2.30
2018-09-22T22:15:49.499Z,2.30
2018-09-22T22:18:35.434Z,2.50
2018-09-22T22:21:19.501Z,2.45
2018-09-22T22:24:07.002Z,2.70
2018-09-22T22:26:50.206Z,2.50
2018-09-22T22:29:31.555Z,2.95
2018-09-22T22:32:09.852Z,2.80
2018-09-22T22:34:49.101Z,2.55
2018-09-22T22:37:39.525Z,2.70
2018-09-22T22:40:33.972Z,2.80
2018-09-22T22:43:21.949Z,2.80
2018-09-22T22:46:13.145Z,3.60
2018-09-22T22:49:05.437Z,2.50
2018-09-22T22:52:02.061Z,3.10
2018-09-22T22:57:49.908Z,2.83
2018-09-22T23:00:43.912Z,2.90
2018-09-22T23:03:37.714Z,2.90
2018-09-22T23:06:30.913Z,3.20
2018-09-22T23:09:26.793Z,3.10
2018-09-22T23:12:22.032Z,3.70
2018-09-22T23:15:16.028Z,3.42
2018-09-22T23:17:55.803Z,3.40
2018-09-22T23:20:48.698Z,3.40
2018-09-22T23:23:38.598Z,3.27
2018-09-22T23:26:30.778Z,3.50
2018-09-22T23:29:22.970Z,3.30
2018-09-22T23:32:14.014Z,3.50
2018-09-22T23:38:06.936Z,3.90
2018-09-22T23:41:02.024Z,4.00
2018-09-22T23:43:51.549Z,3.85
2018-09-22T23:46:45.233Z,3.33
2018-09-22T23:49:37.663Z,3.50
2018-09-22T23:52:17.624Z,3.67
2018-09-22T23:54:52.475Z,3.60
2018-09-22T23:57:27.162Z,3.95
